Time;durP1;ratioP1;P1;durP2;ratioP2;P2;SDS_P1;SDS_P2;PMS_P1;PMS_P2;Temp;Humidity;BMP_temperature;BMP_pressure;BME280_temperature;BME280_humidity;BME280_pressure;Samples;Min_cycle;Max_cycle;Signal;HPM_P1;HPM_P2
2021/06/16 00:01:48;;;;;;;10.90;6.47;;;;;;;20.04;100.00;99132.56;10545786;28;20542;-75
2021/06/16 00:07:08;;;;;;;9.57;7.13;;;;;;;19.98;100.00;99128.03;10546298;28;20255;-76
2021/06/16 00:12:27;;;;;;;10.73;6.97;;;;;;;19.94;100.00;99128.16;10543972;28;20185;-74
2021/06/16 00:17:46;;;;;;;8.40;6.40;;;;;;;19.81;100.00;99129.50;10545482;28;20197;-76
2021/06/16 00:23:06;;;;;;;10.20;7.30;;;;;;;19.79;100.00;99118.03;10545691;28;20166;-74
2021/06/16 00:28:25;;;;;;;11.50;7.10;;;;;;;19.74;100.00;99124.22;10544899;28;20182;-75
2021/06/16 00:33:44;;;;;;;9.60;6.77;;;;;;;19.72;100.00;99121.09;10529685;28;20680;-75
2021/06/16 00:39:06;;;;;;;8.37;6.20;;;;;;;19.66;100.00;99125.72;10543522;28;20285;-74
2021/06/16 00:44:26;;;;;;;12.17;7.40;;;;;;;19.62;100.00;99122.31;10543769;28;20186;-75
2021/06/16 00:49:45;;;;;;;15.37;8.57;;;;;;;19.65;100.00;99127.75;10544549;28;20613;-74
2021/06/16 00:55:05;;;;;;;11.20;7.70;;;;;;;19.62;100.00;99125.88;10543036;28;20181;-76
2021/06/16 01:00:30;;;;;;;6.47;5.83;;;;;;;19.57;100.00;99125.69;10543709;28;20203;-75
2021/06/16 01:06:17;;;;;;;7.67;6.90;;;;;;;19.56;100.00;99133.28;10533300;28;20190;-77
2021/06/16 01:12:03;;;;;;;9.83;7.20;;;;;;;19.54;100.00;99127.38;10542309;28;20178;-76
2021/06/16 01:17:32;;;;;;;10.10;8.30;;;;;;;19.50;100.00;99139.91;10543354;28;20214;-74
2021/06/16 01:23:16;;;;;;;13.13;8.03;;;;;;;19.42;100.00;99136.63;10528230;28;20174;-76
2021/06/16 01:28:42;;;;;;;11.93;7.33;;;;;;;19.39;100.00;99131.94;10543078;28;20173;-75
2021/06/16 01:34:03;;;;;;;9.97;7.27;;;;;;;19.31;100.00;99136.25;10527042;28;20262;-77
2021/06/16 01:39:27;;;;;;;10.40;7.43;;;;;;;19.26;100.00;99127.69;10541079;28;20209;-74
2021/06/16 01:44:49;;;;;;;7.67;6.07;;;;;;;19.24;100.00;99124.56;10542557;28;20182;-74
2021/06/16 01:50:09;;;;;;;13.33;7.40;;;;;;;19.23;100.00;99125.03;10524852;28;20572;-74
2021/06/16 01:55:28;;;;;;;10.07;7.53;;;;;;;19.19;100.00;99122.38;10540723;28;20205;-75
2021/06/16 02:00:52;;;;;;;9.43;7.20;;;;;;;19.13;100.00;99118.63;10523692;28;20300;-73
2021/06/16 02:06:14;;;;;;;10.13;7.57;;;;;;;19.08;100.00;99119.16;10535725;28;20185;-74
2021/06/16 02:11:38;;;;;;;9.97;7.77;;;;;;;19.01;100.00;99116.66;10540263;28;20177;-74
2021/06/16 02:17:04;;;;;;;10.07;7.20;;;;;;;19.00;100.00;99112.28;10540830;28;20198;-74
2021/06/16 02:22:27;;;;;;;7.97;6.40;;;;;;;18.97;100.00;99107.66;10540898;28;20170;-75
2021/06/16 02:27:46;;;;;;;9.80;6.93;;;;;;;18.92;100.00;99110.25;10539535;28;20174;-73
2021/06/16 02:33:05;;;;;;;15.97;8.07;;;;;;;18.88;100.00;99106.78;10539644;28;20271;-74
2021/06/16 02:38:29;;;;;;;11.63;7.23;;;;;;;18.83;100.00;99099.00;10539057;28;20205;-74
2021/06/16 02:43:49;;;;;;;10.13;6.83;;;;;;;18.77;100.00;99106.41;10540017;28;20186;-74
2021/06/16 02:49:12;;;;;;;8.70;7.30;;;;;;;18.70;100.00;99101.88;10524745;28;20558;-73
2021/06/16 02:54:33;;;;;;;11.67;7.90;;;;;;;18.70;100.00;99101.06;10523359;28;20181;-75
2021/06/16 02:59:53;;;;;;;7.77;6.57;;;;;;;18.61;100.00;99099.00;10524130;28;20205;-74
2021/06/16 03:05:17;;;;;;;10.20;7.60;;;;;;;18.65;100.00;99099.66;10536739;28;20276;-76
2021/06/16 03:10:37;;;;;;;12.90;8.10;;;;;;;18.53;100.00;99097.69;10538136;28;20621;-76
2021/06/16 03:15:57;;;;;;;16.70;7.83;;;;;;;18.50;100.00;99097.81;10539269;28;20202;-77
2021/06/16 03:21:17;;;;;;;11.87;7.70;;;;;;;18.46;100.00;99097.94;10538502;28;20213;-74
2021/06/16 03:26:36;;;;;;;11.47;8.80;;;;;;;18.51;100.00;99100.16;10537933;28;20170;-76
2021/06/16 03:31:56;;;;;;;11.33;7.77;;;;;;;18.47;100.00;99102.28;10538657;28;20173;-76
2021/06/16 03:37:16;;;;;;;8.37;7.07;;;;;;;18.46;100.00;99097.94;10529970;28;20301;-77
2021/06/16 03:42:37;;;;;;;10.30;8.13;;;;;;;18.44;100.00;99092.03;10537534;28;20178;-77
2021/06/16 03:48:02;;;;;;;11.20;8.40;;;;;;;18.50;100.00;99093.03;10538606;28;20186;-75
2021/06/16 03:53:21;;;;;;;14.93;8.20;;;;;;;18.48;100.00;99101.06;10523281;28;20190;-75
2021/06/16 03:58:41;;;;;;;10.30;8.60;;;;;;;18.55;100.00;99106.38;10538240;28;20583;-77
2021/06/16 04:04:12;;;;;;;12.10;8.60;;;;;;;18.57;100.00;99105.94;10538222;28;20170;-76
2021/06/16 04:09:31;;;;;;;11.33;8.00;;;;;;;18.67;100.00;99105.53;10537033;28;20179;-74
2021/06/16 04:14:52;;;;;;;9.67;8.47;;;;;;;18.73;100.00;99102.97;10537750;28;20556;-77
2021/06/16 04:20:12;;;;;;;10.27;8.20;;;;;;;18.84;100.00;99106.91;10538346;28;20210;-76
2021/06/16 04:25:31;;;;;;;12.53;8.33;;;;;;;18.94;100.00;99102.22;10544577;28;20190;-75
2021/06/16 04:30:50;;;;;;;10.00;7.10;;;;;;;19.04;100.00;99087.88;10529652;28;20178;-75
2021/06/16 04:36:09;;;;;;;9.13;8.20;;;;;;;19.14;100.00;99095.09;10544667;28;20288;-75
2021/06/16 04:41:28;;;;;;;16.20;9.00;;;;;;;19.29;100.00;99094.06;10543932;28;20264;-75
2021/06/16 04:46:50;;;;;;;12.73;8.67;;;;;;;19.46;100.00;99094.63;10536923;28;20182;-75
2021/06/16 04:52:09;;;;;;;15.87;9.80;;;;;;;19.56;100.00;99091.41;10544683;28;20174;-75
2021/06/16 04:57:28;;;;;;;14.43;8.33;;;;;;;19.74;100.00;99082.34;10524632;28;20233;-76
2021/06/16 05:02:47;;;;;;;12.00;8.03;;;;;;;19.92;100.00;99085.19;10543235;28;20637;-76
2021/06/16 05:08:06;;;;;;;12.23;7.90;;;;;;;20.12;100.00;99078.72;10544225;28;20185;-75
2021/06/16 05:13:27;;;;;;;10.73;7.73;;;;;;;20.26;100.00;99078.16;10543379;28;20202;-76
2021/06/16 05:18:47;;;;;;;9.60;8.13;;;;;;;20.48;100.00;99072.41;10554313;28;20210;-75
2021/06/16 05:24:06;;;;;;;9.60;6.90;;;;;;;20.67;100.00;99073.97;10541903;28;20196;-76
2021/06/16 05:29:26;;;;;;;14.60;8.90;;;;;;;20.84;100.00;99073.19;10543163;28;20170;-75
2021/06/16 05:34:45;;;;;;;11.77;8.60;;;;;;;21.09;100.00;99072.84;10540722;28;20210;-76
2021/06/16 05:40:06;;;;;;;12.53;8.23;;;;;;;21.18;100.00;99065.22;10525625;28;20209;-76
2021/06/16 05:45:25;;;;;;;13.90;8.20;;;;;;;21.36;100.00;99065.16;10542311;28;20174;-76
2021/06/16 05:50:44;;;;;;;14.37;9.90;;;;;;;21.72;100.00;99065.03;10542506;28;20178;-76
2021/06/16 05:56:03;;;;;;;9.80;8.80;;;;;;;21.95;100.00;99070.69;10525481;28;20173;-76
2021/06/16 06:01:22;;;;;;;11.40;8.80;;;;;;;22.21;100.00;99063.31;10540344;28;20210;-77
2021/06/16 06:06:41;;;;;;;12.90;9.57;;;;;;;22.53;100.00;99068.13;10530921;28;20189;-78
2021/06/16 06:12:00;;;;;;;12.70;7.87;;;;;;;22.86;100.00;99058.31;10572966;28;20198;-77
2021/06/16 06:17:19;;;;;;;10.00;8.57;;;;;;;23.23;100.00;99062.31;10576554;28;20248;-77
2021/06/16 06:22:38;;;;;;;10.60;8.67;;;;;;;23.49;100.00;99052.84;10561363;28;20178;-76
2021/06/16 06:27:57;;;;;;;15.93;9.20;;;;;;;23.71;100.00;99058.00;10576632;28;20260;-77
2021/06/16 06:33:16;;;;;;;12.70;9.07;;;;;;;24.01;100.00;99062.31;10536648;28;20257;-75
2021/06/16 06:38:35;;;;;;;10.33;7.30;;;;;;;24.39;99.23;99060.03;10538809;28;20213;-75
2021/06/16 06:43:54;;;;;;;9.23;7.57;;;;;;;24.72;92.82;99055.59;10539900;28;20174;-78
2021/06/16 06:49:13;;;;;;;9.90;7.73;;;;;;;25.18;87.42;99056.34;10540065;28;20182;-75
2021/06/16 06:54:35;;;;;;;10.50;7.40;;;;;;;25.46;68.69;99055.31;10537590;28;20177;-75
2021/06/16 06:59:54;;;;;;;6.90;6.20;;;;;;;25.77;65.04;99043.28;10537847;28;20209;-78
2021/06/16 07:05:14;;;;;;;10.40;6.50;;;;;;;25.90;63.61;99052.84;10517389;28;20190;-77
2021/06/16 07:10:33;;;;;;;8.70;6.60;;;;;;;26.21;64.06;99047.88;10538078;28;20185;-76
2021/06/16 07:15:52;;;;;;;7.63;6.70;;;;;;;26.59;63.70;99044.50;10539300;28;20266;-75
2021/06/16 07:21:11;;;;;;;7.30;5.47;;;;;;;27.00;58.59;99049.25;10537965;28;20209;-76
2021/06/16 07:26:30;;;;;;;11.63;7.10;;;;;;;27.52;59.30;99056.75;10535534;28;20185;-76
2021/06/16 07:31:50;;;;;;;9.23;7.00;;;;;;;27.81;57.18;99050.59;10497306;28;20190;-77
2021/06/16 07:37:09;;;;;;;7.53;6.30;;;;;;;28.10;56.17;99043.59;10496548;28;20226;-78
2021/06/16 07:42:28;;;;;;;8.30;7.30;;;;;;;28.68;54.02;99048.78;10495834;28;20171;-77
2021/06/16 07:47:47;;;;;;;6.90;6.20;;;;;;;28.92;54.86;99046.13;10497026;28;20253;-78
2021/06/16 07:53:06;;;;;;;7.03;6.30;;;;;;;29.10;52.54;99046.25;10524797;28;20182;-77
2021/06/16 07:58:26;;;;;;;6.17;5.57;;;;;;;29.32;50.88;99043.28;10552549;28;20206;-77
2021/06/16 08:03:44;;;;;;;7.53;6.40;;;;;;;29.44;51.17;99044.75;10540390;28;20181;-78
2021/06/16 08:09:04;;;;;;;7.37;6.30;;;;;;;29.62;51.24;99036.31;10569153;28;20181;-77
2021/06/16 08:14:23;;;;;;;8.53;5.90;;;;;;;30.62;49.37;99037.59;10546153;28;20194;-78
2021/06/16 08:19:42;;;;;;;5.80;5.20;;;;;;;31.14;46.95;99035.84;10545524;28;20217;-76
2021/06/16 08:25:06;;;;;;;6.67;6.13;;;;;;;31.55;44.69;99038.34;10544608;28;20201;-77
2021/06/16 08:30:25;;;;;;;5.80;5.30;;;;;;;31.24;44.96;99039.06;10538872;28;20175;-77
2021/06/16 08:35:44;;;;;;;6.93;5.87;;;;;;;31.23;45.19;99029.00;10544743;28;20221;-76
2021/06/16 08:41:08;;;;;;;8.00;5.90;;;;;;;31.62;45.81;99032.78;10527935;28;20288;-79
2021/06/16 08:46:30;;;;;;;6.20;5.70;;;;;;;32.36;42.68;99033.22;10529414;28;20174;-76
2021/06/16 08:51:49;;;;;;;8.10;6.10;;;;;;;32.52;45.13;99032.84;10543017;28;20170;-76
2021/06/16 08:57:08;;;;;;;5.70;5.20;;;;;;;32.92;41.39;99025.03;10550272;28;20198;-77
2021/06/16 09:02:27;;;;;;;6.10;5.60;;;;;;;33.43;40.51;99016.31;10543767;28;20220;-77
2021/06/16 09:07:46;;;;;;;6.00;5.40;;;;;;;33.74;38.75;99020.97;10535929;28;20181;-78
2021/06/16 09:13:08;;;;;;;5.93;5.43;;;;;;;33.18;40.47;99016.41;10542668;28;20243;-78
2021/06/16 09:18:42;;;;;;;12.63;6.07;;;;;;;33.86;39.18;99016.50;10543390;28;20683;-78
2021/06/16 09:24:01;;;;;;;6.90;5.83;;;;;;;33.74;38.69;99015.28;10553098;28;20533;-78
2021/06/16 09:29:29;;;;;;;7.23;5.00;;;;;;;33.68;39.92;99011.03;10541916;28;20651;-77
2021/06/16 09:34:54;;;;;;;5.83;5.33;;;;;;;33.48;39.62;99006.81;10485270;28;20218;-77
2021/06/16 09:40:13;;;;;;;6.27;5.63;;;;;;;34.25;38.00;99004.78;10499208;28;20214;-77
2021/06/16 09:45:35;;;;;;;6.60;6.00;;;;;;;33.95;39.88;99004.56;10500577;28;20213;-78
2021/06/16 09:51:15;;;;;;;6.27;5.63;;;;;;;34.77;37.06;99004.31;10513468;28;20178;-76
2021/06/16 09:56:34;;;;;;;5.70;5.30;;;;;;;34.95;35.95;98997.53;10528440;28;20197;-78
2021/06/16 10:01:56;;;;;;;5.60;5.20;;;;;;;35.10;38.22;99001.97;10526203;28;20177;-78
2021/06/16 10:07:23;;;;;;;6.37;5.87;;;;;;;35.15;38.63;99000.28;10540101;28;20276;-77
2021/06/16 10:12:44;;;;;;;5.57;5.07;;;;;;;34.94;36.03;98987.41;10580238;28;20672;-76
2021/06/16 10:18:03;;;;;;;5.63;5.23;;;;;;;35.49;36.50;98983.53;10567395;28;20200;-76
2021/06/16 10:23:23;;;;;;;4.60;4.27;;;;;;;35.70;36.21;98989.84;10579251;28;20216;-77
2021/06/16 10:28:47;;;;;;;5.77;5.27;;;;;;;36.82;33.90;98990.38;10543132;28;20177;-77
2021/06/16 10:34:08;;;;;;;5.40;5.00;;;;;;;36.66;32.22;98986.06;10540571;28;20221;-77
2021/06/16 10:39:27;;;;;;;4.97;4.50;;;;;;;37.23;32.00;98979.09;10538812;28;20204;-76
2021/06/16 10:45:19;;;;;;;4.60;4.20;;;;;;;37.06;30.59;98979.00;10540331;28;20174;-78
2021/06/16 10:56:07;;;;;;;4.23;3.93;;;;;;;36.14;32.67;98975.53;10542673;28;20181;-76
2021/06/16 11:01:26;;;;;;;3.60;3.30;;;;;;;36.96;29.05;98968.72;10528749;28;20204;-77
2021/06/16 11:06:45;;;;;;;4.27;3.50;;;;;;;35.67;30.57;98965.22;10558123;28;20214;-77
2021/06/16 11:12:08;;;;;;;7.20;3.47;;;;;;;37.33;28.91;98959.16;10579371;28;20188;-76
2021/06/16 11:17:27;;;;;;;3.97;3.73;;;;;;;38.50;26.95;98958.59;10581351;28;20205;-77
2021/06/16 11:23:01;;;;;;;4.07;3.77;;;;;;;37.97;26.53;98951.13;10541165;28;20169;-75
2021/06/16 11:28:39;;;;;;;4.00;3.70;;;;;;;37.93;28.49;98945.06;10537289;28;20277;-78
2021/06/16 11:33:58;;;;;;;3.87;3.67;;;;;;;38.37;26.86;98938.81;10504420;28;20284;-78
2021/06/16 11:39:20;;;;;;;3.60;3.30;;;;;;;38.51;25.50;98930.59;10504134;28;20213;-77
2021/06/16 11:44:40;;;;;;;3.80;3.40;;;;;;;38.59;27.40;98923.41;10505778;28;20166;-79
2021/06/16 11:50:00;;;;;;;3.90;3.60;;;;;;;39.13;26.34;98922.09;10504154;28;20692;-78
2021/06/16 11:55:45;;;;;;;11.63;3.90;;;;;;;39.62;26.56;98913.81;10478223;28;20239;-78
2021/06/16 12:01:07;;;;;;;4.47;4.17;;;;;;;38.29;27.27;98913.66;10448890;28;20214;-78
2021/06/16 12:06:26;;;;;;;4.80;4.30;;;;;;;38.19;28.08;98907.81;10463147;28;20175;-76
2021/06/16 12:11:45;;;;;;;4.50;4.20;;;;;;;38.01;28.56;98903.38;10500374;28;20604;-76
2021/06/16 12:17:04;;;;;;;4.27;3.97;;;;;;;38.65;27.69;98906.66;10503982;28;20198;-77
2021/06/16 12:22:27;;;;;;;4.23;4.03;;;;;;;38.27;28.06;98885.47;10504013;28;20293;-77
2021/06/16 12:27:46;;;;;;;4.80;4.13;;;;;;;38.67;27.33;98898.22;10496593;28;20170;-78
2021/06/16 12:33:22;;;;;;;5.17;4.70;;;;;;;38.73;28.53;98883.56;10488258;28;20222;-77
2021/06/16 12:38:57;;;;;;;4.50;4.20;;;;;;;39.14;29.46;98877.56;10501743;28;20198;-78
2021/06/16 12:44:21;;;;;;;4.28;3.88;;;;;;;39.60;26.06;98866.81;10502627;28;20178;-78
2021/06/16 12:49:42;;;;;;;5.70;4.73;;;;;;;39.11;25.96;98870.13;10502945;28;20252;-79
2021/06/16 12:55:14;;;;;;;7.63;4.75;;;;;;;39.34;27.59;98873.38;10499272;28;20182;-77
2021/06/16 13:00:33;;;;;;;4.68;4.38;;;;;;;40.11;26.21;98865.06;10501926;28;20201;-77
2021/06/16 13:06:04;;;;;;;4.28;3.97;;;;;;;40.80;24.04;98863.03;10502281;28;20186;-79
2021/06/16 13:11:31;;;;;;;4.13;3.72;;;;;;;41.13;22.33;98861.09;10500767;28;20198;-77
2021/06/16 13:17:01;;;;;;;4.07;3.78;;;;;;;39.55;24.27;98853.47;10501915;28;20178;-79
2021/06/16 13:22:31;;;;;;;4.35;4.05;;;;;;;39.81;24.36;98849.72;10501676;28;20633;-77
2021/06/16 13:27:57;;;;;;;4.18;3.88;;;;;;;39.96;23.79;98849.44;10484007;28;20210;-77
2021/06/16 13:33:38;;;;;;;4.07;3.67;;;;;;;40.19;25.13;98848.38;10459809;28;20226;-77
2021/06/16 13:38:57;;;;;;;3.50;3.30;;;;;;;39.13;25.37;98849.41;10458002;28;20207;-76
2021/06/16 13:44:18;;;;;;;4.25;3.97;;;;;;;38.85;25.20;98842.16;10459412;28;20175;-76
2021/06/16 13:49:37;;;;;;;3.63;3.42;;;;;;;39.42;23.95;98839.47;10444073;28;20261;-76
2021/06/16 13:54:56;;;;;;;4.10;3.80;;;;;;;39.69;23.89;98838.03;10470868;28;20170;-78
2021/06/16 14:00:15;;;;;;;4.70;4.32;;;;;;;39.69;24.54;98840.16;10499298;28;20339;-78
2021/06/16 14:05:36;;;;;;;4.78;3.83;;;;;;;40.74;23.26;98822.19;10499820;28;20186;-77
2021/06/16 14:10:59;;;;;;;4.07;3.78;;;;;;;40.34;23.71;98821.38;10497315;28;20193;-78
2021/06/16 14:16:18;;;;;;;4.40;4.07;;;;;;;40.09;23.89;98830.31;10499249;28;20182;-78
2021/06/16 14:21:37;;;;;;;3.95;3.65;;;;;;;41.25;23.06;98830.19;10498620;28;20650;-78
2021/06/16 14:26:57;;;;;;;7.32;4.35;;;;;;;41.26;23.24;98820.91;10478616;28;20182;-78
2021/06/16 14:32:15;;;;;;;4.03;3.83;;;;;;;39.72;24.86;98816.66;10498859;28;20210;-76
2021/06/16 14:37:34;;;;;;;4.68;4.38;;;;;;;39.36;23.80;98816.75;10482481;28;20214;-78
2021/06/16 14:42:53;;;;;;;3.85;3.55;;;;;;;39.30;24.13;98810.50;10497222;28;20182;-78
2021/06/16 14:48:13;;;;;;;4.30;3.53;;;;;;;38.85;24.50;98799.00;10498336;28;20252;-78
2021/06/16 14:53:32;;;;;;;4.18;3.75;;;;;;;39.06;25.43;98807.88;10497344;28;20193;-76
2021/06/16 14:58:51;;;;;;;3.80;3.60;;;;;;;39.40;24.20;98796.88;10497754;28;20245;-77
2021/06/16 15:04:10;;;;;;;3.53;3.33;;;;;;;38.94;24.86;98798.25;10497672;28;20264;-76
2021/06/16 15:09:30;;;;;;;3.70;3.50;;;;;;;39.32;23.92;98784.00;10496227;28;20214;-77
2021/06/16 15:14:49;;;;;;;3.25;3.05;;;;;;;39.89;24.00;98787.72;10497595;28;20178;-78
2021/06/16 15:20:09;;;;;;;3.28;3.08;;;;;;;39.57;23.69;98784.50;10497214;28;20334;-76
2021/06/16 15:25:31;;;;;;;3.70;3.50;;;;;;;38.39;24.57;98780.88;10495192;28;20189;-77
2021/06/16 15:30:51;;;;;;;5.20;3.40;;;;;;;38.71;24.71;98780.59;10497406;28;20174;-78
2021/06/16 15:36:10;;;;;;;3.78;3.47;;;;;;;38.99;23.83;98785.72;10526387;28;20221;-77
2021/06/16 15:41:29;;;;;;;3.70;3.40;;;;;;;39.07;23.79;98774.84;10537076;28;20221;-77
2021/06/16 15:46:48;;;;;;;3.50;3.30;;;;;;;38.94;25.17;98777.34;10538826;28;20181;-76
2021/06/16 15:52:07;;;;;;;3.70;3.50;;;;;;;38.72;24.55;98772.75;10538573;28;20248;-76
2021/06/16 15:57:25;;;;;;;3.20;3.00;;;;;;;37.65;26.21;98776.81;10537313;28;20199;-76
2021/06/16 16:02:46;;;;;;;3.60;3.40;;;;;;;37.61;25.67;98770.72;10532805;28;20250;-77
2021/06/16 16:08:06;;;;;;;3.83;3.63;;;;;;;37.83;25.44;98768.97;10509375;28;20209;-76
2021/06/16 16:13:25;;;;;;;3.57;3.37;;;;;;;38.07;25.42;98765.22;10495173;28;20174;-75
2021/06/16 16:18:44;;;;;;;3.37;3.17;;;;;;;37.78;25.90;98755.63;10485623;28;20704;-78
2021/06/16 16:24:05;;;;;;;3.40;3.20;;;;;;;37.75;25.37;98754.69;10487585;28;20178;-77
2021/06/16 16:29:24;;;;;;;3.97;3.57;;;;;;;37.18;25.31;98755.50;10503864;28;20182;-78
2021/06/16 16:34:44;;;;;;;3.33;3.13;;;;;;;37.59;25.53;98744.75;10527619;28;20678;-78
2021/06/16 16:40:05;;;;;;;3.10;2.90;;;;;;;37.65;24.68;98742.34;10517073;28;20201;-76
2021/06/16 16:45:24;;;;;;;3.57;3.37;;;;;;;37.63;25.17;98738.56;10505567;28;20170;-77
2021/06/16 16:50:43;;;;;;;3.67;3.30;;;;;;;37.96;24.66;98731.28;10508696;28;20633;-77
2021/06/16 16:56:03;;;;;;;3.37;3.07;;;;;;;37.85;25.18;98735.41;10486398;28;20568;-75
2021/06/16 17:01:22;;;;;;;3.63;3.43;;;;;;;37.88;24.79;98727.75;10501937;28;20206;-79
2021/06/16 17:06:41;;;;;;;3.37;3.10;;;;;;;38.07;23.72;98724.97;10502441;28;20173;-76
2021/06/16 17:12:00;;;;;;;2.93;2.83;;;;;;;38.15;24.34;98722.75;10500770;28;20653;-75
2021/06/16 17:17:20;;;;;;;4.17;3.00;;;;;;;38.37;24.55;98719.59;10532652;28;20248;-76
2021/06/16 17:22:39;;;;;;;2.83;2.63;;;;;;;38.12;23.65;98718.22;10525962;28;20178;-76
2021/06/16 17:27:59;;;;;;;3.17;2.97;;;;;;;38.21;24.41;98724.03;10504162;28;20173;-77
2021/06/16 17:33:18;;;;;;;4.17;3.10;;;;;;;38.37;24.18;98722.47;10512989;28;20221;-76
2021/06/16 17:38:38;;;;;;;3.40;3.20;;;;;;;37.92;25.21;98720.22;10541352;28;20205;-78
2021/06/16 17:43:57;;;;;;;3.30;3.10;;;;;;;36.65;26.41;98723.63;10527346;28;20186;-76
2021/06/16 17:49:16;;;;;;;3.10;2.90;;;;;;;35.31;27.45;98716.47;10540213;28;20548;-77
2021/06/16 17:54:36;;;;;;;4.10;3.80;;;;;;;34.41;28.69;98709.28;10539965;28;20169;-76
2021/06/16 17:59:55;;;;;;;3.00;2.80;;;;;;;34.09;28.88;98714.00;10541458;28;20205;-76
2021/06/16 18:05:15;;;;;;;2.73;2.53;;;;;;;33.72;29.89;98712.53;10526435;28;20635;-78
2021/06/16 18:10:37;;;;;;;6.20;3.40;;;;;;;33.20;30.73;98717.22;10540349;28;20653;-77
2021/06/16 18:15:56;;;;;;;3.60;3.30;;;;;;;32.76;31.79;98718.41;10523961;28;20178;-77
2021/06/16 18:21:15;;;;;;;5.63;3.20;;;;;;;32.37;32.27;98718.63;10498601;28;20289;-77
2021/06/16 18:26:34;;;;;;;3.47;3.17;;;;;;;32.10;33.03;98728.59;10497701;28;20182;-76
2021/06/16 18:31:53;;;;;;;3.60;3.30;;;;;;;31.74;34.87;98724.75;10498842;28;20175;-77
2021/06/16 18:37:12;;;;;;;4.00;3.70;;;;;;;31.41;36.23;98723.94;10481075;28;20238;-76
2021/06/16 18:42:34;;;;;;;3.80;3.50;;;;;;;30.85;38.57;98715.72;10496747;28;20178;-74
2021/06/16 18:47:59;;;;;;;3.63;3.33;;;;;;;30.48;40.19;98720.03;10498080;28;20194;-75
2021/06/16 18:53:19;;;;;;;4.70;3.67;;;;;;;30.24;41.19;98726.59;10498084;28;20258;-77
2021/06/16 18:58:38;;;;;;;3.10;2.90;;;;;;;30.10;41.66;98732.75;10482515;28;20202;-75
2021/06/16 19:03:58;;;;;;;4.77;4.37;;;;;;;29.87;42.15;98730.78;10497931;28;20178;-74
2021/06/16 19:09:17;;;;;;;4.20;3.90;;;;;;;29.61;42.80;98731.38;10496509;28;20202;-74
2021/06/16 19:14:36;;;;;;;4.07;3.77;;;;;;;29.29;43.48;98730.47;10497584;28;20179;-73
2021/06/16 19:19:56;;;;;;;4.50;4.10;;;;;;;29.01;44.25;98728.53;10482034;28;20202;-74
2021/06/16 19:25:16;;;;;;;3.77;3.47;;;;;;;28.81;47.63;98731.81;10495876;28;20179;-73
2021/06/16 19:30:35;;;;;;;6.47;4.20;;;;;;;28.36;50.12;98739.94;10482228;28;20183;-73
2021/06/16 19:35:57;;;;;;;4.53;4.23;;;;;;;27.54;51.92;98746.13;10524530;28;20618;-74
2021/06/16 19:41:16;;;;;;;4.30;3.90;;;;;;;27.14;52.94;98751.66;10537092;28;20194;-74
2021/06/16 19:46:35;;;;;;;4.93;4.40;;;;;;;26.85;52.89;98755.06;10538789;28;20260;-78
2021/06/16 19:51:54;;;;;;;3.73;3.43;;;;;;;26.83;54.61;98759.69;10525206;28;20178;-79
2021/06/16 19:57:13;;;;;;;4.20;3.90;;;;;;;26.50;55.46;98756.91;10544373;28;20545;-78
2021/06/16 20:02:32;;;;;;;4.20;3.90;;;;;;;26.24;56.48;98759.19;10531421;28;20182;-77
2021/06/16 20:07:53;;;;;;;4.20;3.90;;;;;;;26.03;56.16;98763.53;10539340;28;20201;-76
2021/06/16 20:13:13;;;;;;;5.03;3.67;;;;;;;25.89;58.03;98763.78;10529508;28;20186;-73
2021/06/16 20:18:32;;;;;;;3.93;3.63;;;;;;;25.63;58.18;98763.16;10545666;28;20566;-75
2021/06/16 20:23:51;;;;;;;4.10;3.70;;;;;;;25.55;58.38;98764.94;10543920;28;20253;-76
2021/06/16 20:29:11;;;;;;;4.80;3.57;;;;;;;25.49;60.37;98758.50;10543620;28;20574;-77
2021/06/16 20:34:30;;;;;;;3.30;3.10;;;;;;;24.98;61.94;98767.22;10546976;28;20259;-77
2021/06/16 20:39:49;;;;;;;5.20;4.70;;;;;;;24.79;62.80;98778.63;10527881;28;20198;-77
2021/06/16 20:45:08;;;;;;;3.53;3.23;;;;;;;24.46;64.43;98779.13;10527339;28;20197;-77
2021/06/16 20:50:32;;;;;;;4.40;4.03;;;;;;;24.33;65.97;98786.41;10544608;28;20261;-77
2021/06/16 20:55:52;;;;;;;4.40;4.00;;;;;;;24.00;67.65;98776.91;10543619;28;20186;-75
2021/06/16 21:01:11;;;;;;;4.03;3.70;;;;;;;23.89;68.19;98788.81;10544055;28;20209;-74
2021/06/16 21:06:30;;;;;;;3.60;3.30;;;;;;;23.63;69.00;98790.81;10543674;28;20561;-77
2021/06/16 21:11:50;;;;;;;4.23;3.83;;;;;;;23.36;70.83;98788.44;10542830;28;20600;-77
2021/06/16 21:17:10;;;;;;;5.00;4.40;;;;;;;23.27;70.98;98790.63;10543840;28;20170;-75
2021/06/16 21:22:29;;;;;;;3.77;3.43;;;;;;;23.11;71.61;98793.97;10543765;28;20170;-77
2021/06/16 21:27:50;;;;;;;4.50;4.20;;;;;;;22.97;71.80;98799.59;10542289;28;20189;-75
2021/06/16 21:33:10;;;;;;;4.07;3.77;;;;;;;22.96;71.63;98801.66;10543200;28;20233;-75
2021/06/16 21:38:29;;;;;;;4.27;3.87;;;;;;;22.84;72.08;98804.78;10541434;28;20559;-75
2021/06/16 21:43:48;;;;;;;4.40;4.00;;;;;;;22.72;71.53;98800.25;10542811;28;20182;-76
2021/06/16 21:49:07;;;;;;;5.43;4.47;;;;;;;22.66;73.05;98802.22;10542447;28;20536;-75
2021/06/16 21:54:27;;;;;;;9.93;4.90;;;;;;;22.39;75.48;98810.19;10541395;28;20625;-76
2021/06/16 21:59:46;;;;;;;3.73;3.43;;;;;;;22.10;77.04;98813.72;10541379;28;20205;-76
2021/06/16 22:05:07;;;;;;;6.13;5.10;;;;;;;22.13;77.35;98814.78;10541966;28;20682;-76
2021/06/16 22:10:26;;;;;;;4.37;4.07;;;;;;;21.89;78.32;98816.91;10525286;28;20178;-77
2021/06/16 22:15:45;;;;;;;5.57;4.00;;;;;;;21.78;80.34;98816.69;10541098;28;20182;-77
2021/06/16 22:21:05;;;;;;;8.27;4.40;;;;;;;21.65;81.95;98812.63;10541052;28;20202;-74
2021/06/16 22:26:24;;;;;;;5.97;5.47;;;;;;;21.49;83.56;98813.81;10539737;28;20170;-77
2021/06/16 22:31:43;;;;;;;4.57;4.27;;;;;;;21.37;85.72;98816.84;10525780;28;20676;-76
2021/06/16 22:37:04;;;;;;;4.77;4.40;;;;;;;21.20;88.95;98818.53;10538820;28;20226;-76
2021/06/16 22:42:23;;;;;;;4.60;4.30;;;;;;;20.99;92.14;98814.75;10539548;28;20181;-76
2021/06/16 22:47:43;;;;;;;6.53;5.47;;;;;;;20.97;89.83;98814.47;10540327;28;20528;-76
2021/06/16 22:53:02;;;;;;;4.70;4.30;;;;;;;21.03;87.21;98811.78;10540295;28;20412;-76
2021/06/16 22:58:22;;;;;;;4.90;4.40;;;;;;;21.06;85.83;98808.06;10538131;28;20206;-76
2021/06/16 23:03:41;;;;;;;3.57;3.27;;;;;;;20.89;88.25;98807.66;10539731;28;20190;-76
2021/06/16 23:09:00;;;;;;;4.40;4.00;;;;;;;20.70;90.07;98805.41;10538518;28;20276;-76
2021/06/16 23:14:19;;;;;;;5.87;4.90;;;;;;;20.51;93.30;98808.75;10538129;28;20177;-75
2021/06/16 23:19:38;;;;;;;6.30;4.53;;;;;;;20.33;98.74;98795.66;10539008;28;20209;-74
2021/06/16 23:24:57;;;;;;;4.13;3.73;;;;;;;20.16;100.00;98797.25;10537943;28;20178;-74
2021/06/16 23:30:23;;;;;;;8.53;5.20;;;;;;;20.13;100.00;98789.78;10537605;28;20579;-74
2021/06/16 23:35:44;;;;;;;5.30;4.70;;;;;;;20.06;100.00;98794.94;10538659;28;20218;-76
2021/06/16 23:41:03;;;;;;;5.23;4.80;;;;;;;19.81;100.00;98802.88;10537453;28;20676;-75
2021/06/16 23:46:22;;;;;;;5.23;4.63;;;;;;;19.64;100.00;98807.22;10538941;28;20628;-75
2021/06/16 23:51:41;;;;;;;5.57;4.10;;;;;;;19.49;100.00;98809.09;10538881;28;20170;-74
2021/06/16 23:57:00;;;;;;;8.07;5.17;;;;;;;19.56;100.00;98805.97;10536936;28;20637;-76
